CheckWX is a tool to help pilots better visualize weather data.  It is not intended as a substitute for an official pre-flight weather briefing.

16:22:10 UTC

KMTH TAF
The Florida Keys Marathon International Airport
Marathon, Florida, USA
KMTH 181135Z 1812/1912 03006KT P6SM SCT012 BKN110 FM182100 03009KT P6SM VCSH SCT020 BKN035 OVC060 FM190400 03009G17KT P6SM -SHRA SCT012 BKN025 OVC060 FM190900 04012G20KT 5SM SHRA OVC015

Mar-18@
12:00 UTC

Mar-18 @ 12:00 UTC

Mar-18@
21:00 UTC

Mar-18 @ 21:00 UTC

KMTH 181135Z 1812/1912 03006KT P6SM SCT012 BKN110
Wind
  • 030° at 6 KTS
Cloud Levels
  • Scattered at 1,200' AGL
  • Broken at 11,000' AGL

Mar-18@
21:00 UTC

Mar-18 @ 21:00 UTC

Mar-19@
04:00 UTC

Mar-19 @ 04:00 UTC

FM182100 03009KT P6SM VCSH SCT020 BKN035 OVC060

From

From Standard forecast or significant change

Wind
  • 030° at 9 KTS
Cloud Levels
  • Scattered at 2,000' AGL
  • Broken at 3,500' AGL
  • Overcast at 6,000' AGL

Mar-19@
04:00 UTC

Mar-19 @ 04:00 UTC

Mar-19@
09:00 UTC

Mar-19 @ 09:00 UTC

FM190400 03009G17KT P6SM -SHRA SCT012 BKN025 OVC060

From

From Standard forecast or significant change

Wind
  • 030° at 9 KTS
  • {Gusting to 17 KTS
Conditions
Light Rain
Cloud Levels
  • Scattered at 1,200' AGL
  • Broken at 2,500' AGL
  • Overcast at 6,000' AGL

Mar-19@
09:00 UTC

Mar-19 @ 09:00 UTC

Mar-19@
12:00 UTC

Mar-19 @ 12:00 UTC

FM190900 04012G20KT 5SM SHRA OVC015

From

From Standard forecast or significant change

Wind
  • 040° at 12 KTS
  • {Gusting to 20 KTS
Conditions
Rain
Cloud Levels
  • Overcast at 1,500' AGL